Terminal Aerodrome Forecast
Issued by NWS

Home | Current Version | Previous Version | Text Only | Print | Product List | Glossary Off
Versions: 1 2 3 4 5 6 7 8 9 10 11 12 13 14 15 16 17 18 19 20 21 22

000
FTUS43 KMPX 292105 AAA
TAFRWF
TAF AMD
KRWF 292105Z 2921/3018 32017G24KT P6SM OVC025
      TEMPO 2921/2924 SCT025
     FM300000 33010KT P6SM SKC
     FM300800 31003KT P6SM SCT100
     FM301400 16005KT P6SM BKN100=

USA.gov is the U.S. government's official web portal to all federal, state and local government web resources and services.